sensor_id;sensor_type;location;lat;lon;timestamp;pressure;altitude;pressure_sealevel;temperature;humidity
55801;BME280;41730;51.960;20.158;2023-01-08T00:01:29;100293.75;;;4.73;82.80
55801;BME280;41730;51.960;20.158;2023-01-08T00:04:01;100293.52;;;4.71;83.06
55801;BME280;41730;51.960;20.158;2023-01-08T00:06:32;100290.67;;;4.63;83.14
55801;BME280;41730;51.960;20.158;2023-01-08T00:09:04;100293.14;;;4.53;83.54
55801;BME280;41730;51.960;20.158;2023-01-08T00:11:35;100284.50;;;4.55;83.68
55801;BME280;41730;51.960;20.158;2023-01-08T00:14:07;100284.64;;;4.65;83.25
55801;BME280;41730;51.960;20.158;2023-01-08T00:16:39;100283.41;;;4.69;83.33
55801;BME280;41730;51.960;20.158;2023-01-08T00:19:11;100280.55;;;4.79;82.86
55801;BME280;41730;51.960;20.158;2023-01-08T00:21:43;100278.66;;;4.87;82.21
55801;BME280;41730;51.960;20.158;2023-01-08T00:24:15;100277.15;;;4.78;82.33
55801;BME280;41730;51.960;20.158;2023-01-08T00:26:46;100281.34;;;4.59;82.95
55801;BME280;41730;51.960;20.158;2023-01-08T00:29:18;100280.70;;;4.46;83.47
55801;BME280;41730;51.960;20.158;2023-01-08T00:31:49;100287.02;;;4.44;83.79
55801;BME280;41730;51.960;20.158;2023-01-08T00:34:22;100282.28;;;4.45;83.52
55801;BME280;41730;51.960;20.158;2023-01-08T00:36:53;100283.64;;;4.46;83.53
55801;BME280;41730;51.960;20.158;2023-01-08T00:39:25;100279.84;;;4.43;83.45
55801;BME280;41730;51.960;20.158;2023-01-08T00:41:56;100275.83;;;4.40;83.61
55801;BME280;41730;51.960;20.158;2023-01-08T00:44:28;100270.52;;;4.54;83.26
55801;BME280;41730;51.960;20.158;2023-01-08T00:46:59;100267.79;;;4.53;82.98
55801;BME280;41730;51.960;20.158;2023-01-08T00:49:31;100261.16;;;4.51;82.82
55801;BME280;41730;51.960;20.158;2023-01-08T00:52:02;100255.70;;;4.40;83.15
55801;BME280;41730;51.960;20.158;2023-01-08T00:54:36;100257.62;;;4.33;83.60
55801;BME280;41730;51.960;20.158;2023-01-08T00:57:07;100259.46;;;4.25;83.93
55801;BME280;41730;51.960;20.158;2023-01-08T00:59:39;100258.53;;;4.29;83.95
55801;BME280;41730;51.960;20.158;2023-01-08T01:02:11;100262.58;;;4.28;83.89
55801;BME280;41730;51.960;20.158;2023-01-08T01:04:43;100255.23;;;4.27;83.93
55801;BME280;41730;51.960;20.158;2023-01-08T01:07:14;100248.23;;;4.27;84.01
55801;BME280;41730;51.960;20.158;2023-01-08T01:09:45;100248.73;;;4.37;83.87
55801;BME280;41730;51.960;20.158;2023-01-08T01:12:17;100248.42;;;4.42;83.41
55801;BME280;41730;51.960;20.158;2023-01-08T01:14:49;100249.76;;;4.37;83.74
55801;BME280;41730;51.960;20.158;2023-01-08T01:17:20;100239.55;;;4.39;83.60
55801;BME280;41730;51.960;20.158;2023-01-08T01:19:52;100240.67;;;4.38;83.50
55801;BME280;41730;51.960;20.158;2023-01-08T01:22:23;100243.08;;;4.38;83.58
55801;BME280;41730;51.960;20.158;2023-01-08T01:24:54;100248.99;;;4.39;83.79
55801;BME280;41730;51.960;20.158;2023-01-08T01:27:27;100247.03;;;4.36;83.82
55801;BME280;41730;51.960;20.158;2023-01-08T01:29:58;100249.29;;;4.49;83.55
55801;BME280;41730;51.960;20.158;2023-01-08T01:32:29;100243.79;;;4.51;83.29
55801;BME280;41730;51.960;20.158;2023-01-08T01:35:01;100240.13;;;4.57;83.24
55801;BME280;41730;51.960;20.158;2023-01-08T01:37:33;100233.07;;;4.56;83.14
55801;BME280;41730;51.960;20.158;2023-01-08T01:40:09;100232.48;;;4.48;83.38
55801;BME280;41730;51.960;20.158;2023-01-08T01:42:40;100229.27;;;4.40;83.70
55801;BME280;41730;51.960;20.158;2023-01-08T01:45:18;100235.86;;;4.43;83.98
55801;BME280;41730;51.960;20.158;2023-01-08T01:47:54;100238.46;;;4.40;84.08
55801;BME280;41730;51.960;20.158;2023-01-08T01:50:30;100235.52;;;4.43;84.06
55801;BME280;41730;51.960;20.158;2023-01-08T01:53:06;100231.11;;;4.51;84.06
55801;BME280;41730;51.960;20.158;2023-01-08T01:55:41;100226.02;;;4.58;83.71
55801;BME280;41730;51.960;20.158;2023-01-08T01:58:15;100223.86;;;4.60;83.54
55801;BME280;41730;51.960;20.158;2023-01-08T02:00:47;100231.23;;;4.52;84.02
55801;BME280;41730;51.960;20.158;2023-01-08T02:03:23;100230.30;;;4.56;84.06
55801;BME280;41730;51.960;20.158;2023-01-08T02:05:59;100220.75;;;4.56;83.88
55801;BME280;41730;51.960;20.158;2023-01-08T02:08:37;100219.44;;;4.52;84.18
55801;BME280;41730;51.960;20.158;2023-01-08T02:11:14;100217.17;;;4.52;84.20
55801;BME280;41730;51.960;20.158;2023-01-08T02:13:53;100214.11;;;4.57;84.18
55801;BME280;41730;51.960;20.158;2023-01-08T02:16:32;100212.34;;;4.51;84.36
55801;BME280;41730;51.960;20.158;2023-01-08T02:19:12;100210.11;;;4.57;84.39
55801;BME280;41730;51.960;20.158;2023-01-08T02:21:55;100206.30;;;4.63;84.02
55801;BME280;41730;51.960;20.158;2023-01-08T02:24:37;100204.23;;;4.62;84.16
55801;BME280;41730;51.960;20.158;2023-01-08T02:27:13;100206.05;;;4.64;84.17
55801;BME280;41730;51.960;20.158;2023-01-08T02:29:48;100200.14;;;4.67;84.05
55801;BME280;41730;51.960;20.158;2023-01-08T02:32:23;100198.92;;;4.67;83.87
55801;BME280;41730;51.960;20.158;2023-01-08T02:34:54;100192.29;;;4.65;84.23
55801;BME280;41730;51.960;20.158;2023-01-08T02:37:26;100185.95;;;4.60;84.39
55801;BME280;41730;51.960;20.158;2023-01-08T02:40:05;100182.27;;;4.52;84.68
55801;BME280;41730;51.960;20.158;2023-01-08T02:42:46;100187.19;;;4.60;84.47
55801;BME280;41730;51.960;20.158;2023-01-08T02:45:33;100183.11;;;4.59;84.56
55801;BME280;41730;51.960;20.158;2023-01-08T02:48:10;100181.05;;;4.67;84.28
55801;BME280;41730;51.960;20.158;2023-01-08T02:50:45;100177.94;;;4.69;84.05
55801;BME280;41730;51.960;20.158;2023-01-08T02:53:21;100163.20;;;4.69;84.06
55801;BME280;41730;51.960;20.158;2023-01-08T02:55:56;100157.36;;;4.74;83.78
55801;BME280;41730;51.960;20.158;2023-01-08T02:58:31;100161.87;;;4.71;83.79
55801;BME280;41730;51.960;20.158;2023-01-08T03:01:02;100169.86;;;4.65;83.90
55801;BME280;41730;51.960;20.158;2023-01-08T03:03:35;100176.92;;;4.66;83.65
55801;BME280;41730;51.960;20.158;2023-01-08T03:06:11;100183.86;;;4.66;83.56
55801;BME280;41730;51.960;20.158;2023-01-08T03:08:45;100182.00;;;4.57;83.80
55801;BME280;41730;51.960;20.158;2023-01-08T03:11:19;100175.27;;;4.56;83.77
55801;BME280;41730;51.960;20.158;2023-01-08T03:13:55;100172.36;;;4.55;83.93
55801;BME280;41730;51.960;20.158;2023-01-08T03:16:32;100167.08;;;4.50;84.11
55801;BME280;41730;51.960;20.158;2023-01-08T03:19:10;100161.67;;;4.44;84.32
55801;BME280;41730;51.960;20.158;2023-01-08T03:21:43;100163.92;;;4.57;83.99
55801;BME280;41730;51.960;20.158;2023-01-08T03:24:22;100161.37;;;4.53;83.99
55801;BME280;41730;51.960;20.158;2023-01-08T03:26:56;100158.77;;;4.62;83.87
55801;BME280;41730;51.960;20.158;2023-01-08T03:29:29;100152.08;;;4.51;83.94
55801;BME280;41730;51.960;20.158;2023-01-08T03:32:03;100150.88;;;4.48;84.30
55801;BME280;41730;51.960;20.158;2023-01-08T03:34:39;100148.43;;;4.48;84.06
55801;BME280;41730;51.960;20.158;2023-01-08T03:37:12;100157.04;;;4.38;84.69
55801;BME280;41730;51.960;20.158;2023-01-08T03:39:48;100150.70;;;4.42;84.72
55801;BME280;41730;51.960;20.158;2023-01-08T03:42:23;100152.89;;;4.53;84.28
55801;BME280;41730;51.960;20.158;2023-01-08T03:44:55;100152.25;;;4.48;84.18
55801;BME280;41730;51.960;20.158;2023-01-08T03:47:28;100146.09;;;4.44;84.16
55801;BME280;41730;51.960;20.158;2023-01-08T03:50:02;100143.39;;;4.42;84.36
55801;BME280;41730;51.960;20.158;2023-01-08T03:52:36;100141.41;;;4.47;84.02
55801;BME280;41730;51.960;20.158;2023-01-08T03:55:09;100143.36;;;4.49;83.96
55801;BME280;41730;51.960;20.158;2023-01-08T03:57:41;100144.24;;;4.49;84.12
55801;BME280;41730;51.960;20.158;2023-01-08T04:00:14;100142.39;;;4.45;84.16
55801;BME280;41730;51.960;20.158;2023-01-08T04:02:45;100137.13;;;4.34;84.74
55801;BME280;41730;51.960;20.158;2023-01-08T04:05:17;100139.96;;;4.45;84.20
55801;BME280;41730;51.960;20.158;2023-01-08T04:07:49;100137.98;;;4.55;83.79
55801;BME280;41730;51.960;20.158;2023-01-08T04:10:20;100132.63;;;4.61;83.55
55801;BME280;41730;51.960;20.158;2023-01-08T04:12:52;100134.23;;;4.57;83.71
55801;BME280;41730;51.960;20.158;2023-01-08T04:15:23;100128.39;;;4.59;83.52
55801;BME280;41730;51.960;20.158;2023-01-08T04:17:55;100127.59;;;4.45;83.91
55801;BME280;41730;51.960;20.158;2023-01-08T04:20:27;100133.66;;;4.37;84.42
55801;BME280;41730;51.960;20.158;2023-01-08T04:22:58;100135.08;;;4.36;84.48
55801;BME280;41730;51.960;20.158;2023-01-08T04:25:30;100132.73;;;4.35;84.63
55801;BME280;41730;51.960;20.158;2023-01-08T04:28:04;100131.02;;;4.37;84.62
55801;BME280;41730;51.960;20.158;2023-01-08T04:30:39;100127.16;;;4.47;84.26
55801;BME280;41730;51.960;20.158;2023-01-08T04:33:13;100125.25;;;4.50;83.97
55801;BME280;41730;51.960;20.158;2023-01-08T04:35:44;100123.67;;;4.53;83.59
55801;BME280;41730;51.960;20.158;2023-01-08T04:38:16;100126.77;;;4.39;84.17
55801;BME280;41730;51.960;20.158;2023-01-08T04:40:47;100132.14;;;4.39;84.31
55801;BME280;41730;51.960;20.158;2023-01-08T04:43:19;100127.71;;;4.43;84.00
55801;BME280;41730;51.960;20.158;2023-01-08T04:45:50;100127.11;;;4.45;83.82
55801;BME280;41730;51.960;20.158;2023-01-08T04:48:22;100130.84;;;4.40;84.08
55801;BME280;41730;51.960;20.158;2023-01-08T04:50:53;100126.23;;;4.45;84.08
55801;BME280;41730;51.960;20.158;2023-01-08T04:53:25;100115.28;;;4.57;83.35
55801;BME280;41730;51.960;20.158;2023-01-08T04:55:56;100112.02;;;4.51;83.54
55801;BME280;41730;51.960;20.158;2023-01-08T04:58:33;100103.52;;;4.47;83.85
55801;BME280;41730;51.960;20.158;2023-01-08T05:01:12;100109.52;;;4.61;83.22
55801;BME280;41730;51.960;20.158;2023-01-08T05:03:44;100122.56;;;4.66;83.16
55801;BME280;41730;51.960;20.158;2023-01-08T05:06:15;100125.87;;;4.72;82.78
55801;BME280;41730;51.960;20.158;2023-01-08T05:08:47;100110.13;;;4.59;83.01
55801;BME280;41730;51.960;20.158;2023-01-08T05:11:18;100117.10;;;4.53;83.23
55801;BME280;41730;51.960;20.158;2023-01-08T05:13:51;100124.52;;;4.57;83.34
55801;BME280;41730;51.960;20.158;2023-01-08T05:16:23;100115.60;;;4.61;82.95
55801;BME280;41730;51.960;20.158;2023-01-08T05:18:54;100118.38;;;4.58;83.16
55801;BME280;41730;51.960;20.158;2023-01-08T05:21:25;100116.66;;;4.60;82.87
55801;BME280;41730;51.960;20.158;2023-01-08T05:23:57;100118.02;;;4.46;83.47
55801;BME280;41730;51.960;20.158;2023-01-08T05:26:28;100110.39;;;4.52;83.31
55801;BME280;41730;51.960;20.158;2023-01-08T05:28:59;100110.88;;;4.58;83.13
55801;BME280;41730;51.960;20.158;2023-01-08T05:31:31;100115.70;;;4.50;83.22
55801;BME280;41730;51.960;20.158;2023-01-08T05:34:03;100111.87;;;4.53;83.35
55801;BME280;41730;51.960;20.158;2023-01-08T05:36:34;100113.21;;;4.60;83.19
55801;BME280;41730;51.960;20.158;2023-01-08T05:39:06;100104.31;;;4.58;83.03
55801;BME280;41730;51.960;20.158;2023-01-08T05:41:37;100103.79;;;4.49;83.24
55801;BME280;41730;51.960;20.158;2023-01-08T05:44:10;100105.02;;;4.43;83.43
55801;BME280;41730;51.960;20.158;2023-01-08T05:46:41;100101.64;;;4.47;83.47
55801;BME280;41730;51.960;20.158;2023-01-08T05:49:13;100098.22;;;4.46;83.36
55801;BME280;41730;51.960;20.158;2023-01-08T05:51:45;100104.38;;;4.36;83.67
55801;BME280;41730;51.960;20.158;2023-01-08T05:54:17;100107.77;;;4.26;84.35
55801;BME280;41730;51.960;20.158;2023-01-08T05:56:48;100102.89;;;4.23;84.35
55801;BME280;41730;51.960;20.158;2023-01-08T05:59:20;100097.86;;;4.23;84.60
55801;BME280;41730;51.960;20.158;2023-01-08T06:01:51;100093.07;;;4.36;83.97
55801;BME280;41730;51.960;20.158;2023-01-08T06:04:23;100088.61;;;4.50;83.24
55801;BME280;41730;51.960;20.158;2023-01-08T06:06:54;100085.20;;;4.49;83.17
55801;BME280;41730;51.960;20.158;2023-01-08T06:09:26;100076.88;;;4.58;83.08
55801;BME280;41730;51.960;20.158;2023-01-08T06:11:57;100068.84;;;4.73;82.57
55801;BME280;41730;51.960;20.158;2023-01-08T06:14:29;100063.82;;;4.73;82.31
55801;BME280;41730;51.960;20.158;2023-01-08T06:17:00;100062.63;;;4.58;82.69
55801;BME280;41730;51.960;20.158;2023-01-08T06:19:32;100060.18;;;4.46;82.93
55801;BME280;41730;51.960;20.158;2023-01-08T06:22:03;100064.98;;;4.41;83.36
55801;BME280;41730;51.960;20.158;2023-01-08T06:24:35;100072.13;;;4.47;83.10
55801;BME280;41730;51.960;20.158;2023-01-08T06:27:06;100074.23;;;4.43;83.28
55801;BME280;41730;51.960;20.158;2023-01-08T06:29:38;100079.19;;;4.48;83.24
55801;BME280;41730;51.960;20.158;2023-01-08T06:32:10;100082.75;;;4.52;83.05
55801;BME280;41730;51.960;20.158;2023-01-08T06:34:41;100081.92;;;4.60;82.68
55801;BME280;41730;51.960;20.158;2023-01-08T06:37:13;100072.39;;;4.60;82.55
55801;BME280;41730;51.960;20.158;2023-01-08T06:39:44;100069.80;;;4.60;82.57
55801;BME280;41730;51.960;20.158;2023-01-08T06:42:16;100078.30;;;4.63;82.58
55801;BME280;41730;51.960;20.158;2023-01-08T06:44:47;100077.58;;;4.66;82.33
55801;BME280;41730;51.960;20.158;2023-01-08T06:47:19;100066.80;;;4.72;82.14
55801;BME280;41730;51.960;20.158;2023-01-08T06:49:50;100064.04;;;4.72;82.09
55801;BME280;41730;51.960;20.158;2023-01-08T06:52:22;100064.59;;;4.72;81.93
55801;BME280;41730;51.960;20.158;2023-01-08T06:54:53;100057.98;;;4.69;81.93
55801;BME280;41730;51.960;20.158;2023-01-08T06:57:25;100050.09;;;4.67;82.11
55801;BME280;41730;51.960;20.158;2023-01-08T06:59:56;100053.83;;;4.68;81.82
55801;BME280;41730;51.960;20.158;2023-01-08T07:02:28;100050.10;;;4.78;81.56
55801;BME280;41730;51.960;20.158;2023-01-08T07:04:59;100053.17;;;4.79;81.65
55801;BME280;41730;51.960;20.158;2023-01-08T07:07:31;100045.85;;;4.77;81.53
55801;BME280;41730;51.960;20.158;2023-01-08T07:10:03;100041.84;;;4.83;81.42
55801;BME280;41730;51.960;20.158;2023-01-08T07:12:35;100036.31;;;4.77;81.55
55801;BME280;41730;51.960;20.158;2023-01-08T07:15:08;100038.45;;;4.76;81.55
55801;BME280;41730;51.960;20.158;2023-01-08T07:17:45;100036.84;;;4.85;81.21
55801;BME280;41730;51.960;20.158;2023-01-08T07:20:17;100037.54;;;4.94;80.80
55801;BME280;41730;51.960;20.158;2023-01-08T07:22:48;100039.08;;;4.97;80.86
55801;BME280;41730;51.960;20.158;2023-01-08T07:25:20;100037.05;;;5.01;80.75
55801;BME280;41730;51.960;20.158;2023-01-08T07:27:54;100032.41;;;5.06;80.72
55801;BME280;41730;51.960;20.158;2023-01-08T07:30:26;100035.56;;;5.11;80.32
55801;BME280;41730;51.960;20.158;2023-01-08T07:33:00;100033.24;;;4.98;80.51
55801;BME280;41730;51.960;20.158;2023-01-08T07:35:32;100034.91;;;4.91;81.05
55801;BME280;41730;51.960;20.158;2023-01-08T07:38:04;100031.51;;;4.87;81.44
55801;BME280;41730;51.960;20.158;2023-01-08T07:40:36;100038.95;;;4.87;81.27
55801;BME280;41730;51.960;20.158;2023-01-08T07:43:09;100038.08;;;4.96;81.09
55801;BME280;41730;51.960;20.158;2023-01-08T07:45:41;100028.62;;;5.03;80.96
55801;BME280;41730;51.960;20.158;2023-01-08T07:48:13;100030.72;;;5.02;80.90
55801;BME280;41730;51.960;20.158;2023-01-08T07:50:45;100023.98;;;5.04;80.77
55801;BME280;41730;51.960;20.158;2023-01-08T07:53:16;100017.44;;;4.96;80.93
55801;BME280;41730;51.960;20.158;2023-01-08T07:55:48;100024.52;;;4.94;81.00
55801;BME280;41730;51.960;20.158;2023-01-08T07:58:19;100021.98;;;4.96;81.08
55801;BME280;41730;51.960;20.158;2023-01-08T08:00:51;100015.29;;;4.88;81.26
55801;BME280;41730;51.960;20.158;2023-01-08T08:03:23;100010.73;;;4.94;81.11
55801;BME280;41730;51.960;20.158;2023-01-08T08:05:54;99998.39;;;4.97;81.04
55801;BME280;41730;51.960;20.158;2023-01-08T08:08:26;99996.15;;;4.97;80.94
55801;BME280;41730;51.960;20.158;2023-01-08T08:10:57;99998.02;;;4.89;81.08
55801;BME280;41730;51.960;20.158;2023-01-08T08:13:29;99997.89;;;4.85;81.50
55801;BME280;41730;51.960;20.158;2023-01-08T08:16:03;100004.52;;;4.97;81.28
55801;BME280;41730;51.960;20.158;2023-01-08T08:18:35;100010.41;;;5.02;80.94
55801;BME280;41730;51.960;20.158;2023-01-08T08:21:07;100009.39;;;4.96;81.12
55801;BME280;41730;51.960;20.158;2023-01-08T08:23:38;100015.37;;;4.96;81.25
55801;BME280;41730;51.960;20.158;2023-01-08T08:26:10;100018.73;;;5.00;80.90
55801;BME280;41730;51.960;20.158;2023-01-08T08:28:41;100015.08;;;4.94;81.06
55801;BME280;41730;51.960;20.158;2023-01-08T08:31:13;100016.09;;;5.06;80.70
55801;BME280;41730;51.960;20.158;2023-01-08T08:33:45;100016.26;;;5.11;80.53
55801;BME280;41730;51.960;20.158;2023-01-08T08:36:16;100011.04;;;5.20;80.32
55801;BME280;41730;51.960;20.158;2023-01-08T08:38:48;100016.42;;;5.20;80.39
55801;BME280;41730;51.960;20.158;2023-01-08T08:41:20;100018.50;;;5.20;80.15
55801;BME280;41730;51.960;20.158;2023-01-08T08:43:51;100018.20;;;5.19;80.25
55801;BME280;41730;51.960;20.158;2023-01-08T08:46:23;100007.58;;;5.25;80.11
55801;BME280;41730;51.960;20.158;2023-01-08T08:48:55;100014.89;;;5.22;80.07
55801;BME280;41730;51.960;20.158;2023-01-08T08:51:27;100009.77;;;5.18;80.28
55801;BME280;41730;51.960;20.158;2023-01-08T08:53:58;100012.89;;;5.26;80.49
55801;BME280;41730;51.960;20.158;2023-01-08T08:56:30;100015.90;;;5.33;80.33
55801;BME280;41730;51.960;20.158;2023-01-08T08:59:02;100011.11;;;5.32;80.37
55801;BME280;41730;51.960;20.158;2023-01-08T09:01:34;100012.52;;;5.40;80.26
55801;BME280;41730;51.960;20.158;2023-01-08T09:04:06;100009.11;;;5.47;79.98
55801;BME280;41730;51.960;20.158;2023-01-08T09:06:38;100005.21;;;5.48;79.92
55801;BME280;41730;51.960;20.158;2023-01-08T09:09:09;100005.85;;;5.47;79.90
55801;BME280;41730;51.960;20.158;2023-01-08T09:11:41;100008.39;;;5.45;80.01
55801;BME280;41730;51.960;20.158;2023-01-08T09:14:13;100006.39;;;5.44;79.96
55801;BME280;41730;51.960;20.158;2023-01-08T09:16:45;100004.11;;;5.41;80.15
55801;BME280;41730;51.960;20.158;2023-01-08T09:19:16;99999.54;;;5.34;80.49
55801;BME280;41730;51.960;20.158;2023-01-08T09:21:49;99995.27;;;5.44;80.20
55801;BME280;41730;51.960;20.158;2023-01-08T09:24:21;99986.44;;;5.56;79.78
55801;BME280;41730;51.960;20.158;2023-01-08T09:26:54;99983.86;;;5.56;79.64
55801;BME280;41730;51.960;20.158;2023-01-08T09:29:26;99978.40;;;5.52;79.75
55801;BME280;41730;51.960;20.158;2023-01-08T09:31:57;99976.54;;;5.59;79.94
55801;BME280;41730;51.960;20.158;2023-01-08T09:34:31;99965.91;;;5.78;79.25
55801;BME280;41730;51.960;20.158;2023-01-08T09:37:02;99967.05;;;5.81;78.93
55801;BME280;41730;51.960;20.158;2023-01-08T09:39:34;99964.73;;;5.79;79.17
55801;BME280;41730;51.960;20.158;2023-01-08T09:42:07;99961.59;;;5.69;79.57
55801;BME280;41730;51.960;20.158;2023-01-08T09:44:41;99964.54;;;5.77;79.16
55801;BME280;41730;51.960;20.158;2023-01-08T09:47:22;99961.19;;;5.72;79.30
55801;BME280;41730;51.960;20.158;2023-01-08T09:49:58;99954.77;;;5.75;78.97
55801;BME280;41730;51.960;20.158;2023-01-08T09:52:31;99946.03;;;5.73;78.91
55801;BME280;41730;51.960;20.158;2023-01-08T09:55:05;99937.90;;;5.69;78.98
55801;BME280;41730;51.960;20.158;2023-01-08T09:57:40;99933.92;;;5.72;79.05
55801;BME280;41730;51.960;20.158;2023-01-08T10:00:18;99929.13;;;5.84;78.73
55801;BME280;41730;51.960;20.158;2023-01-08T10:02:52;99929.52;;;5.91;78.56
55801;BME280;41730;51.960;20.158;2023-01-08T10:05:26;99931.77;;;5.99;78.13
55801;BME280;41730;51.960;20.158;2023-01-08T10:07:59;99927.60;;;6.02;78.12
55801;BME280;41730;51.960;20.158;2023-01-08T10:10:33;99923.88;;;6.03;78.04
55801;BME280;41730;51.960;20.158;2023-01-08T10:13:07;99912.11;;;5.99;78.00
55801;BME280;41730;51.960;20.158;2023-01-08T10:15:40;99909.61;;;6.00;78.19
55801;BME280;41730;51.960;20.158;2023-01-08T10:18:14;99903.73;;;6.12;78.04
55801;BME280;41730;51.960;20.158;2023-01-08T10:20:52;99900.75;;;6.23;77.60
55801;BME280;41730;51.960;20.158;2023-01-08T10:23:22;99899.63;;;6.08;77.77
55801;BME280;41730;51.960;20.158;2023-01-08T10:25:56;99894.61;;;6.08;77.60
55801;BME280;41730;51.960;20.158;2023-01-08T10:28:29;99891.95;;;6.04;77.79
55801;BME280;41730;51.960;20.158;2023-01-08T10:31:06;99885.25;;;5.95;78.18
55801;BME280;41730;51.960;20.158;2023-01-08T10:33:42;99879.20;;;6.09;78.06
55801;BME280;41730;51.960;20.158;2023-01-08T10:36:17;99889.70;;;6.24;77.57
55801;BME280;41730;51.960;20.158;2023-01-08T10:38:53;99883.17;;;6.12;77.93
55801;BME280;41730;51.960;20.158;2023-01-08T10:41:27;99881.81;;;6.20;77.78
55801;BME280;41730;51.960;20.158;2023-01-08T10:44:01;99877.76;;;6.20;77.52
55801;BME280;41730;51.960;20.158;2023-01-08T10:46:40;99877.61;;;6.23;77.72
55801;BME280;41730;51.960;20.158;2023-01-08T10:49:18;99882.35;;;6.32;77.48
55801;BME280;41730;51.960;20.158;2023-01-08T10:51:53;99880.04;;;6.45;76.89
55801;BME280;41730;51.960;20.158;2023-01-08T10:54:31;99872.20;;;6.45;76.95
55801;BME280;41730;51.960;20.158;2023-01-08T10:57:16;99868.22;;;6.49;76.54
55801;BME280;41730;51.960;20.158;2023-01-08T10:59:49;99865.55;;;6.33;76.89
55801;BME280;41730;51.960;20.158;2023-01-08T11:03:00;99854.73;;;6.26;77.35
55801;BME280;41730;51.960;20.158;2023-01-08T11:05:35;99852.34;;;6.33;77.34
55801;BME280;41730;51.960;20.158;2023-01-08T11:08:15;99852.73;;;6.32;77.07
55801;BME280;41730;51.960;20.158;2023-01-08T11:10:57;99850.84;;;6.27;77.45
55801;BME280;41730;51.960;20.158;2023-01-08T11:13:30;99847.70;;;6.27;77.45
55801;BME280;41730;51.960;20.158;2023-01-08T11:16:05;99846.45;;;6.30;77.57
55801;BME280;41730;51.960;20.158;2023-01-08T11:18:47;99841.25;;;6.37;77.13
55801;BME280;41730;51.960;20.158;2023-01-08T11:21:21;99840.71;;;6.35;77.35
55801;BME280;41730;51.960;20.158;2023-01-08T11:24:14;99845.63;;;6.24;77.69
55801;BME280;41730;51.960;20.158;2023-01-08T11:26:50;99842.77;;;6.12;77.81
55801;BME280;41730;51.960;20.158;2023-01-08T11:29:26;99837.91;;;6.15;77.98
55801;BME280;41730;51.960;20.158;2023-01-08T11:32:18;99824.59;;;6.14;77.96
55801;BME280;41730;51.960;20.158;2023-01-08T11:34:58;99811.97;;;6.13;78.11
55801;BME280;41730;51.960;20.158;2023-01-08T11:37:35;99813.80;;;6.21;78.01
55801;BME280;41730;51.960;20.158;2023-01-08T11:40:20;99817.95;;;6.31;77.59
55801;BME280;41730;51.960;20.158;2023-01-08T11:43:14;99818.42;;;6.30;77.90
55801;BME280;41730;51.960;20.158;2023-01-08T11:46:02;99817.70;;;6.43;77.49
55801;BME280;41730;51.960;20.158;2023-01-08T11:48:59;99815.73;;;6.65;77.01
55801;BME280;41730;51.960;20.158;2023-01-08T11:51:46;99810.05;;;6.64;76.75
55801;BME280;41730;51.960;20.158;2023-01-08T11:54:39;99803.69;;;6.63;76.94
55801;BME280;41730;51.960;20.158;2023-01-08T11:57:29;99803.63;;;6.59;77.08
55801;BME280;41730;51.960;20.158;2023-01-08T12:00:30;99800.60;;;6.59;77.06
55801;BME280;41730;51.960;20.158;2023-01-08T12:03:07;99798.20;;;6.52;77.46
55801;BME280;41730;51.960;20.158;2023-01-08T12:05:48;99796.55;;;6.58;77.29
55801;BME280;41730;51.960;20.158;2023-01-08T12:08:31;99785.67;;;6.56;77.23
55801;BME280;41730;51.960;20.158;2023-01-08T12:11:11;99790.85;;;6.62;77.11
55801;BME280;41730;51.960;20.158;2023-01-08T12:14:00;99786.17;;;6.64;77.17
55801;BME280;41730;51.960;20.158;2023-01-08T12:16:56;99778.17;;;6.76;76.75
55801;BME280;41730;51.960;20.158;2023-01-08T12:19:47;99779.83;;;6.77;76.56
55801;BME280;41730;51.960;20.158;2023-01-08T12:22:33;99777.52;;;6.80;76.45
55801;BME280;41730;51.960;20.158;2023-01-08T12:28:20;99766.27;;;6.58;77.48
55801;BME280;41730;51.960;20.158;2023-01-08T12:31:01;99764.56;;;6.79;76.78
55801;BME280;41730;51.960;20.158;2023-01-08T12:33:42;99775.70;;;6.91;75.82
55801;BME280;41730;51.960;20.158;2023-01-08T12:36:19;99777.76;;;6.91;76.10
55801;BME280;41730;51.960;20.158;2023-01-08T12:39:00;99778.13;;;6.86;76.00
55801;BME280;41730;51.960;20.158;2023-01-08T12:41:35;99776.63;;;6.78;76.37
55801;BME280;41730;51.960;20.158;2023-01-08T12:44:11;99771.05;;;6.80;76.41
55801;BME280;41730;51.960;20.158;2023-01-08T12:46:50;99762.02;;;6.84;76.13
55801;BME280;41730;51.960;20.158;2023-01-08T12:49:26;99756.26;;;6.78;76.21
55801;BME280;41730;51.960;20.158;2023-01-08T12:52:05;99758.38;;;6.82;76.05
55801;BME280;41730;51.960;20.158;2023-01-08T12:54:50;99752.91;;;6.88;76.01
55801;BME280;41730;51.960;20.158;2023-01-08T12:57:30;99755.34;;;6.90;75.56
55801;BME280;41730;51.960;20.158;2023-01-08T13:00:08;99754.57;;;6.82;75.93
55801;BME280;41730;51.960;20.158;2023-01-08T13:02:53;99748.32;;;6.91;75.63
55801;BME280;41730;51.960;20.158;2023-01-08T13:05:34;99749.30;;;6.73;75.50
55801;BME280;41730;51.960;20.158;2023-01-08T13:08:26;99745.66;;;6.58;76.02
55801;BME280;41730;51.960;20.158;2023-01-08T13:11:02;99743.95;;;6.60;76.01
55801;BME280;41730;51.960;20.158;2023-01-08T13:13:36;99742.59;;;6.64;76.21
55801;BME280;41730;51.960;20.158;2023-01-08T13:16:19;99737.65;;;6.75;75.80
55801;BME280;41730;51.960;20.158;2023-01-08T13:18:55;99737.22;;;6.80;75.51
55801;BME280;41730;51.960;20.158;2023-01-08T13:21:32;99734.69;;;6.70;75.78
55801;BME280;41730;51.960;20.158;2023-01-08T13:24:19;99735.84;;;6.71;75.98
55801;BME280;41730;51.960;20.158;2023-01-08T13:27:11;99742.48;;;6.73;75.74
55801;BME280;41730;51.960;20.158;2023-01-08T13:29:48;99744.21;;;6.71;75.77
55801;BME280;41730;51.960;20.158;2023-01-08T13:32:42;99744.08;;;6.65;75.90
55801;BME280;41730;51.960;20.158;2023-01-08T13:35:28;99738.98;;;6.59;76.10